sensor_id;sensor_type;location;lat;lon;timestamp;P1;durP1;ratioP1;P2;durP2;ratioP2
19339;SDS011;9804;52.350;6.684;2022-11-06T00:02:16;11.68;;;6.10;;
19339;SDS011;9804;52.350;6.684;2022-11-06T00:04:42;11.35;;;6.68;;
19339;SDS011;9804;52.350;6.684;2022-11-06T00:07:07;10.48;;;5.97;;
19339;SDS011;9804;52.350;6.684;2022-11-06T00:09:32;13.30;;;6.13;;
19339;SDS011;9804;52.350;6.684;2022-11-06T00:11:58;12.02;;;6.10;;
19339;SDS011;9804;52.350;6.684;2022-11-06T00:14:24;14.40;;;6.32;;
19339;SDS011;9804;52.350;6.684;2022-11-06T00:16:49;12.65;;;5.93;;
19339;SDS011;9804;52.350;6.684;2022-11-06T00:19:15;11.70;;;6.00;;
19339;SDS011;9804;52.350;6.684;2022-11-06T00:21:41;9.95;;;5.68;;
19339;SDS011;9804;52.350;6.684;2022-11-06T00:24:07;11.23;;;5.72;;
19339;SDS011;9804;52.350;6.684;2022-11-06T00:26:33;12.20;;;6.45;;
19339;SDS011;9804;52.350;6.684;2022-11-06T00:29:00;9.45;;;5.72;;
19339;SDS011;9804;52.350;6.684;2022-11-06T00:31:27;13.75;;;7.10;;
19339;SDS011;9804;52.350;6.684;2022-11-06T00:33:56;9.65;;;5.72;;
19339;SDS011;9804;52.350;6.684;2022-11-06T00:36:23;11.90;;;6.72;;
19339;SDS011;9804;52.350;6.684;2022-11-06T00:38:50;10.85;;;5.32;;
19339;SDS011;9804;52.350;6.684;2022-11-06T00:41:17;14.05;;;6.07;;
19339;SDS011;9804;52.350;6.684;2022-11-06T00:43:46;9.80;;;6.10;;
19339;SDS011;9804;52.350;6.684;2022-11-06T00:46:13;9.55;;;5.57;;
19339;SDS011;9804;52.350;6.684;2022-11-06T00:48:39;13.35;;;5.53;;
19339;SDS011;9804;52.350;6.684;2022-11-06T00:51:12;11.38;;;5.60;;
19339;SDS011;9804;52.350;6.684;2022-11-06T00:53:38;12.93;;;6.03;;
19339;SDS011;9804;52.350;6.684;2022-11-06T00:58:31;14.48;;;7.07;;
19339;SDS011;9804;52.350;6.684;2022-11-06T01:01:03;12.52;;;5.95;;
19339;SDS011;9804;52.350;6.684;2022-11-06T01:03:36;11.52;;;5.13;;
19339;SDS011;9804;52.350;6.684;2022-11-06T01:06:09;10.20;;;5.22;;
19339;SDS011;9804;52.350;6.684;2022-11-06T01:08:36;7.90;;;4.75;;
19339;SDS011;9804;52.350;6.684;2022-11-06T01:11:13;9.27;;;5.32;;
19339;SDS011;9804;52.350;6.684;2022-11-06T01:13:41;10.35;;;4.80;;
19339;SDS011;9804;52.350;6.684;2022-11-06T01:16:07;11.15;;;5.10;;
19339;SDS011;9804;52.350;6.684;2022-11-06T01:18:35;10.93;;;4.88;;
19339;SDS011;9804;52.350;6.684;2022-11-06T01:21:12;9.15;;;4.22;;
19339;SDS011;9804;52.350;6.684;2022-11-06T01:23:39;8.80;;;4.82;;
19339;SDS011;9804;52.350;6.684;2022-11-06T01:26:06;6.55;;;4.38;;
19339;SDS011;9804;52.350;6.684;2022-11-06T01:28:32;12.23;;;5.47;;
19339;SDS011;9804;52.350;6.684;2022-11-06T01:31:05;10.33;;;4.97;;
19339;SDS011;9804;52.350;6.684;2022-11-06T01:33:33;9.38;;;4.25;;
19339;SDS011;9804;52.350;6.684;2022-11-06T01:35:58;12.27;;;4.90;;
19339;SDS011;9804;52.350;6.684;2022-11-06T01:38:24;10.82;;;4.32;;
19339;SDS011;9804;52.350;6.684;2022-11-06T01:40:49;7.70;;;4.63;;
19339;SDS011;9804;52.350;6.684;2022-11-06T01:43:17;11.55;;;4.32;;
19339;SDS011;9804;52.350;6.684;2022-11-06T01:45:45;13.15;;;4.78;;
19339;SDS011;9804;52.350;6.684;2022-11-06T01:48:12;8.73;;;4.60;;
19339;SDS011;9804;52.350;6.684;2022-11-06T01:50:38;9.17;;;4.03;;
19339;SDS011;9804;52.350;6.684;2022-11-06T01:53:07;14.90;;;4.95;;
19339;SDS011;9804;52.350;6.684;2022-11-06T01:55:37;9.13;;;4.50;;
19339;SDS011;9804;52.350;6.684;2022-11-06T01:58:06;12.20;;;4.22;;
19339;SDS011;9804;52.350;6.684;2022-11-06T02:00:34;11.85;;;4.68;;
19339;SDS011;9804;52.350;6.684;2022-11-06T02:02:59;9.27;;;4.60;;
19339;SDS011;9804;52.350;6.684;2022-11-06T02:05:26;9.25;;;4.00;;
19339;SDS011;9804;52.350;6.684;2022-11-06T02:07:52;7.65;;;4.03;;
19339;SDS011;9804;52.350;6.684;2022-11-06T02:10:19;8.57;;;4.40;;
19339;SDS011;9804;52.350;6.684;2022-11-06T02:15:46;10.20;;;4.25;;
19339;SDS011;9804;52.350;6.684;2022-11-06T02:26:12;8.40;;;3.40;;
19339;SDS011;9804;52.350;6.684;2022-11-06T02:28:53;11.15;;;3.97;;
19339;SDS011;9804;52.350;6.684;2022-11-06T02:31:25;7.60;;;3.33;;
19339;SDS011;9804;52.350;6.684;2022-11-06T02:33:58;6.22;;;3.53;;
19339;SDS011;9804;52.350;6.684;2022-11-06T02:36:32;7.57;;;3.70;;
19339;SDS011;9804;52.350;6.684;2022-11-06T02:39:03;10.35;;;3.88;;
19339;SDS011;9804;52.350;6.684;2022-11-06T02:41:36;8.00;;;4.00;;
19339;SDS011;9804;52.350;6.684;2022-11-06T02:44:06;6.97;;;3.65;;
19339;SDS011;9804;52.350;6.684;2022-11-06T02:49:05;11.05;;;3.40;;
19339;SDS011;9804;52.350;6.684;2022-11-06T02:51:35;9.05;;;3.22;;
19339;SDS011;9804;52.350;6.684;2022-11-06T02:54:05;7.38;;;2.83;;
19339;SDS011;9804;52.350;6.684;2022-11-06T02:56:32;9.83;;;3.43;;
19339;SDS011;9804;52.350;6.684;2022-11-06T02:59:02;8.88;;;3.22;;
19339;SDS011;9804;52.350;6.684;2022-11-06T03:01:35;6.63;;;2.80;;
19339;SDS011;9804;52.350;6.684;2022-11-06T03:04:27;11.38;;;3.00;;
19339;SDS011;9804;52.350;6.684;2022-11-06T03:07:14;6.60;;;2.70;;
19339;SDS011;9804;52.350;6.684;2022-11-06T03:09:55;13.43;;;3.40;;
19339;SDS011;9804;52.350;6.684;2022-11-06T03:12:25;6.10;;;2.90;;
19339;SDS011;9804;52.350;6.684;2022-11-06T03:14:56;5.38;;;2.75;;
19339;SDS011;9804;52.350;6.684;2022-11-06T03:17:40;8.75;;;3.00;;
19339;SDS011;9804;52.350;6.684;2022-11-06T03:20:15;9.48;;;2.88;;
19339;SDS011;9804;52.350;6.684;2022-11-06T03:22:45;9.15;;;3.03;;
19339;SDS011;9804;52.350;6.684;2022-11-06T03:25:27;8.82;;;2.63;;
19339;SDS011;9804;52.350;6.684;2022-11-06T03:30:34;8.48;;;2.42;;
19339;SDS011;9804;52.350;6.684;2022-11-06T03:33:06;7.90;;;2.55;;
19339;SDS011;9804;52.350;6.684;2022-11-06T03:38:17;7.25;;;2.65;;
19339;SDS011;9804;52.350;6.684;2022-11-06T03:40:52;6.25;;;2.38;;
19339;SDS011;9804;52.350;6.684;2022-11-06T03:43:23;9.23;;;2.30;;
19339;SDS011;9804;52.350;6.684;2022-11-06T03:45:52;8.77;;;2.65;;
19339;SDS011;9804;52.350;6.684;2022-11-06T03:48:24;7.20;;;2.65;;
19339;SDS011;9804;52.350;6.684;2022-11-06T03:51:04;12.77;;;2.88;;
19339;SDS011;9804;52.350;6.684;2022-11-06T03:53:35;8.38;;;2.40;;
19339;SDS011;9804;52.350;6.684;2022-11-06T03:56:06;9.38;;;2.58;;
19339;SDS011;9804;52.350;6.684;2022-11-06T03:58:38;12.63;;;2.92;;
19339;SDS011;9804;52.350;6.684;2022-11-06T04:01:07;10.43;;;2.03;;
19339;SDS011;9804;52.350;6.684;2022-11-06T04:06:31;10.43;;;2.75;;
19339;SDS011;9804;52.350;6.684;2022-11-06T04:09:03;6.00;;;2.15;;
19339;SDS011;9804;52.350;6.684;2022-11-06T04:11:49;7.20;;;2.90;;
19339;SDS011;9804;52.350;6.684;2022-11-06T04:14:35;9.90;;;2.40;;
19339;SDS011;9804;52.350;6.684;2022-11-06T04:17:03;8.77;;;3.15;;
19339;SDS011;9804;52.350;6.684;2022-11-06T04:19:31;9.20;;;2.15;;
19339;SDS011;9804;52.350;6.684;2022-11-06T04:22:16;6.60;;;2.38;;
19339;SDS011;9804;52.350;6.684;2022-11-06T04:36:37;7.85;;;1.90;;
19339;SDS011;9804;52.350;6.684;2022-11-06T04:44:09;11.60;;;2.63;;
19339;SDS011;9804;52.350;6.684;2022-11-06T04:46:57;6.00;;;1.90;;
19339;SDS011;9804;52.350;6.684;2022-11-06T04:49:25;10.82;;;2.20;;
19339;SDS011;9804;52.350;6.684;2022-11-06T04:51:52;9.93;;;2.00;;
19339;SDS011;9804;52.350;6.684;2022-11-06T04:54:18;8.65;;;2.47;;
19339;SDS011;9804;52.350;6.684;2022-11-06T04:56:43;9.43;;;1.90;;
19339;SDS011;9804;52.350;6.684;2022-11-06T04:59:10;6.90;;;1.80;;
19339;SDS011;9804;52.350;6.684;2022-11-06T05:01:37;4.82;;;2.10;;
19339;SDS011;9804;52.350;6.684;2022-11-06T05:04:03;9.95;;;1.98;;
19339;SDS011;9804;52.350;6.684;2022-11-06T05:06:28;10.00;;;2.25;;
19339;SDS011;9804;52.350;6.684;2022-11-06T05:08:53;10.85;;;2.40;;
19339;SDS011;9804;52.350;6.684;2022-11-06T05:11:19;5.93;;;2.17;;
19339;SDS011;9804;52.350;6.684;2022-11-06T05:13:44;10.73;;;2.33;;
19339;SDS011;9804;52.350;6.684;2022-11-06T05:16:10;6.40;;;2.00;;
19339;SDS011;9804;52.350;6.684;2022-11-06T05:18:35;7.43;;;2.08;;
19339;SDS011;9804;52.350;6.684;2022-11-06T05:21:01;5.05;;;2.17;;
19339;SDS011;9804;52.350;6.684;2022-11-06T05:23:45;8.52;;;2.05;;
19339;SDS011;9804;52.350;6.684;2022-11-06T05:26:11;6.35;;;1.92;;
19339;SDS011;9804;52.350;6.684;2022-11-06T05:28:36;6.97;;;2.00;;
19339;SDS011;9804;52.350;6.684;2022-11-06T05:31:01;9.15;;;2.50;;
19339;SDS011;9804;52.350;6.684;2022-11-06T05:33:27;11.77;;;2.15;;
19339;SDS011;9804;52.350;6.684;2022-11-06T05:35:52;9.13;;;2.22;;
19339;SDS011;9804;52.350;6.684;2022-11-06T05:38:18;7.15;;;2.15;;
19339;SDS011;9804;52.350;6.684;2022-11-06T05:40:44;7.88;;;2.58;;
19339;SDS011;9804;52.350;6.684;2022-11-06T05:43:10;13.73;;;2.58;;
19339;SDS011;9804;52.350;6.684;2022-11-06T05:45:35;11.05;;;2.20;;
19339;SDS011;9804;52.350;6.684;2022-11-06T05:48:00;8.32;;;2.33;;
19339;SDS011;9804;52.350;6.684;2022-11-06T05:50:26;6.50;;;1.77;;
19339;SDS011;9804;52.350;6.684;2022-11-06T05:52:51;7.93;;;1.83;;
19339;SDS011;9804;52.350;6.684;2022-11-06T05:55:16;8.55;;;1.90;;
19339;SDS011;9804;52.350;6.684;2022-11-06T05:57:42;5.07;;;1.98;;
19339;SDS011;9804;52.350;6.684;2022-11-06T06:00:08;11.52;;;1.85;;
19339;SDS011;9804;52.350;6.684;2022-11-06T06:02:35;5.28;;;1.92;;
19339;SDS011;9804;52.350;6.684;2022-11-06T06:05:01;5.28;;;2.10;;
19339;SDS011;9804;52.350;6.684;2022-11-06T06:07:28;10.80;;;2.00;;
19339;SDS011;9804;52.350;6.684;2022-11-06T06:09:53;9.23;;;1.92;;
19339;SDS011;9804;52.350;6.684;2022-11-06T06:12:18;8.15;;;2.28;;
19339;SDS011;9804;52.350;6.684;2022-11-06T06:14:44;10.80;;;2.03;;
19339;SDS011;9804;52.350;6.684;2022-11-06T06:17:09;8.52;;;1.52;;
19339;SDS011;9804;52.350;6.684;2022-11-06T06:19:34;7.35;;;2.35;;
19339;SDS011;9804;52.350;6.684;2022-11-06T06:22:00;6.40;;;2.20;;
19339;SDS011;9804;52.350;6.684;2022-11-06T06:24:25;7.93;;;2.13;;
19339;SDS011;9804;52.350;6.684;2022-11-06T06:26:50;7.50;;;1.70;;
19339;SDS011;9804;52.350;6.684;2022-11-06T06:29:16;7.10;;;1.80;;
19339;SDS011;9804;52.350;6.684;2022-11-06T06:31:41;10.10;;;1.90;;
19339;SDS011;9804;52.350;6.684;2022-11-06T06:34:06;5.97;;;1.80;;
19339;SDS011;9804;52.350;6.684;2022-11-06T06:36:32;7.95;;;2.00;;
19339;SDS011;9804;52.350;6.684;2022-11-06T06:38:57;7.88;;;1.92;;
19339;SDS011;9804;52.350;6.684;2022-11-06T06:41:22;8.95;;;1.88;;
19339;SDS011;9804;52.350;6.684;2022-11-06T06:43:48;7.80;;;1.90;;
19339;SDS011;9804;52.350;6.684;2022-11-06T06:46:14;6.15;;;1.90;;
19339;SDS011;9804;52.350;6.684;2022-11-06T06:48:39;8.70;;;2.50;;
19339;SDS011;9804;52.350;6.684;2022-11-06T06:51:05;8.27;;;1.88;;
19339;SDS011;9804;52.350;6.684;2022-11-06T06:53:32;5.85;;;1.73;;
19339;SDS011;9804;52.350;6.684;2022-11-06T06:55:57;7.63;;;1.70;;
19339;SDS011;9804;52.350;6.684;2022-11-06T06:58:24;7.70;;;1.88;;
19339;SDS011;9804;52.350;6.684;2022-11-06T07:00:50;6.55;;;1.77;;
19339;SDS011;9804;52.350;6.684;2022-11-06T07:03:15;10.40;;;2.10;;
19339;SDS011;9804;52.350;6.684;2022-11-06T07:05:40;11.20;;;2.20;;
19339;SDS011;9804;52.350;6.684;2022-11-06T07:08:06;4.00;;;1.27;;
19339;SDS011;9804;52.350;6.684;2022-11-06T07:10:31;11.48;;;1.73;;
19339;SDS011;9804;52.350;6.684;2022-11-06T07:13:03;5.38;;;1.83;;
19339;SDS011;9804;52.350;6.684;2022-11-06T07:15:29;6.20;;;2.53;;
19339;SDS011;9804;52.350;6.684;2022-11-06T07:17:54;8.55;;;1.77;;
19339;SDS011;9804;52.350;6.684;2022-11-06T07:20:19;6.82;;;1.70;;
19339;SDS011;9804;52.350;6.684;2022-11-06T07:22:45;4.43;;;1.40;;
19339;SDS011;9804;52.350;6.684;2022-11-06T07:25:10;5.07;;;1.60;;
19339;SDS011;9804;52.350;6.684;2022-11-06T07:27:36;8.88;;;2.00;;
19339;SDS011;9804;52.350;6.684;2022-11-06T07:30:01;9.20;;;1.70;;
19339;SDS011;9804;52.350;6.684;2022-11-06T07:32:27;8.73;;;1.40;;
19339;SDS011;9804;52.350;6.684;2022-11-06T07:34:52;8.32;;;1.83;;
19339;SDS011;9804;52.350;6.684;2022-11-06T07:37:18;5.07;;;1.65;;
19339;SDS011;9804;52.350;6.684;2022-11-06T07:39:43;3.83;;;1.52;;
19339;SDS011;9804;52.350;6.684;2022-11-06T07:42:08;6.60;;;1.58;;
19339;SDS011;9804;52.350;6.684;2022-11-06T07:44:34;6.90;;;1.73;;
19339;SDS011;9804;52.350;6.684;2022-11-06T07:46:59;10.40;;;1.80;;
19339;SDS011;9804;52.350;6.684;2022-11-06T07:49:24;5.55;;;2.20;;
19339;SDS011;9804;52.350;6.684;2022-11-06T07:51:50;6.40;;;1.70;;
19339;SDS011;9804;52.350;6.684;2022-11-06T07:54:15;5.53;;;1.67;;
19339;SDS011;9804;52.350;6.684;2022-11-06T07:56:40;12.05;;;2.85;;
19339;SDS011;9804;52.350;6.684;2022-11-06T07:59:06;6.88;;;1.65;;
19339;SDS011;9804;52.350;6.684;2022-11-06T08:01:31;7.07;;;1.77;;
19339;SDS011;9804;52.350;6.684;2022-11-06T08:03:56;6.55;;;1.80;;
19339;SDS011;9804;52.350;6.684;2022-11-06T08:06:22;6.57;;;1.60;;
19339;SDS011;9804;52.350;6.684;2022-11-06T08:08:47;9.27;;;2.15;;
19339;SDS011;9804;52.350;6.684;2022-11-06T08:11:12;7.90;;;1.77;;
19339;SDS011;9804;52.350;6.684;2022-11-06T08:13:38;8.73;;;2.05;;
19339;SDS011;9804;52.350;6.684;2022-11-06T08:16:07;7.20;;;1.60;;
19339;SDS011;9804;52.350;6.684;2022-11-06T08:18:37;7.53;;;2.05;;
19339;SDS011;9804;52.350;6.684;2022-11-06T08:21:03;5.97;;;1.58;;
19339;SDS011;9804;52.350;6.684;2022-11-06T08:23:31;7.95;;;1.88;;
19339;SDS011;9804;52.350;6.684;2022-11-06T08:25:57;7.22;;;2.13;;
19339;SDS011;9804;52.350;6.684;2022-11-06T08:28:25;9.13;;;1.67;;
19339;SDS011;9804;52.350;6.684;2022-11-06T08:30:51;3.75;;;1.50;;
19339;SDS011;9804;52.350;6.684;2022-11-06T08:33:17;7.85;;;1.80;;
19339;SDS011;9804;52.350;6.684;2022-11-06T08:35:43;6.82;;;1.65;;
19339;SDS011;9804;52.350;6.684;2022-11-06T08:38:09;5.65;;;1.70;;
19339;SDS011;9804;52.350;6.684;2022-11-06T08:40:35;5.85;;;1.48;;
19339;SDS011;9804;52.350;6.684;2022-11-06T08:43:02;8.05;;;1.90;;
19339;SDS011;9804;52.350;6.684;2022-11-06T08:45:29;7.97;;;1.80;;
19339;SDS011;9804;52.350;6.684;2022-11-06T08:47:55;4.68;;;1.50;;
19339;SDS011;9804;52.350;6.684;2022-11-06T08:50:25;6.78;;;1.80;;
19339;SDS011;9804;52.350;6.684;2022-11-06T08:52:50;6.00;;;1.55;;
19339;SDS011;9804;52.350;6.684;2022-11-06T08:55:16;8.55;;;1.83;;
19339;SDS011;9804;52.350;6.684;2022-11-06T08:57:41;4.22;;;1.52;;
19339;SDS011;9804;52.350;6.684;2022-11-06T09:00:06;6.85;;;1.63;;
19339;SDS011;9804;52.350;6.684;2022-11-06T09:02:32;5.43;;;1.70;;
19339;SDS011;9804;52.350;6.684;2022-11-06T09:04:58;5.88;;;1.75;;
19339;SDS011;9804;52.350;6.684;2022-11-06T09:07:23;7.90;;;1.70;;
19339;SDS011;9804;52.350;6.684;2022-11-06T09:09:49;4.55;;;1.58;;
19339;SDS011;9804;52.350;6.684;2022-11-06T09:12:14;8.07;;;1.65;;
19339;SDS011;9804;52.350;6.684;2022-11-06T09:14:39;5.22;;;1.73;;
19339;SDS011;9804;52.350;6.684;2022-11-06T09:17:05;7.05;;;2.00;;
19339;SDS011;9804;52.350;6.684;2022-11-06T09:19:30;5.57;;;1.60;;
19339;SDS011;9804;52.350;6.684;2022-11-06T09:21:56;9.52;;;2.33;;
19339;SDS011;9804;52.350;6.684;2022-11-06T09:24:21;9.45;;;1.85;;
19339;SDS011;9804;52.350;6.684;2022-11-06T09:26:47;8.25;;;2.00;;
19339;SDS011;9804;52.350;6.684;2022-11-06T09:29:12;6.80;;;1.67;;
19339;SDS011;9804;52.350;6.684;2022-11-06T09:31:37;5.50;;;1.67;;
19339;SDS011;9804;52.350;6.684;2022-11-06T09:34:03;10.48;;;1.55;;
19339;SDS011;9804;52.350;6.684;2022-11-06T09:36:28;11.65;;;2.03;;
19339;SDS011;9804;52.350;6.684;2022-11-06T09:38:53;8.52;;;1.42;;
19339;SDS011;9804;52.350;6.684;2022-11-06T09:41:21;6.60;;;1.67;;
19339;SDS011;9804;52.350;6.684;2022-11-06T09:46:43;7.28;;;1.10;;
19339;SDS011;9804;52.350;6.684;2022-11-06T09:54:37;6.70;;;1.52;;
19339;SDS011;9804;52.350;6.684;2022-11-06T09:57:18;5.25;;;1.00;;
19339;SDS011;9804;52.350;6.684;2022-11-06T09:59:49;8.43;;;1.77;;
19339;SDS011;9804;52.350;6.684;2022-11-06T10:07:27;7.15;;;1.00;;
19339;SDS011;9804;52.350;6.684;2022-11-06T10:09:54;6.05;;;1.58;;
19339;SDS011;9804;52.350;6.684;2022-11-06T10:12:26;5.65;;;1.02;;
19339;SDS011;9804;52.350;6.684;2022-11-06T10:15:04;10.70;;;1.85;;
19339;SDS011;9804;52.350;6.684;2022-11-06T10:20:19;4.38;;;1.05;;
19339;SDS011;9804;52.350;6.684;2022-11-06T10:22:57;5.13;;;1.35;;
19339;SDS011;9804;52.350;6.684;2022-11-06T10:25:39;5.43;;;1.42;;
19339;SDS011;9804;52.350;6.684;2022-11-06T10:30:47;3.53;;;1.17;;
19339;SDS011;9804;52.350;6.684;2022-11-06T10:33:30;6.47;;;1.48;;
19339;SDS011;9804;52.350;6.684;2022-11-06T10:38:32;6.88;;;1.45;;
19339;SDS011;9804;52.350;6.684;2022-11-06T10:40:59;5.38;;;1.25;;
19339;SDS011;9804;52.350;6.684;2022-11-06T10:46:01;6.18;;;1.33;;
19339;SDS011;9804;52.350;6.684;2022-11-06T10:48:38;7.50;;;1.27;;
19339;SDS011;9804;52.350;6.684;2022-11-06T10:51:17;7.38;;;1.40;;
19339;SDS011;9804;52.350;6.684;2022-11-06T10:54:00;5.32;;;1.23;;
19339;SDS011;9804;52.350;6.684;2022-11-06T10:59:21;5.68;;;1.35;;
19339;SDS011;9804;52.350;6.684;2022-11-06T11:01:46;8.40;;;1.73;;
19339;SDS011;9804;52.350;6.684;2022-11-06T11:04:12;5.00;;;1.55;;
19339;SDS011;9804;52.350;6.684;2022-11-06T11:06:38;4.10;;;1.55;;
19339;SDS011;9804;52.350;6.684;2022-11-06T11:09:13;4.60;;;1.23;;
19339;SDS011;9804;52.350;6.684;2022-11-06T11:11:53;6.38;;;1.42;;
19339;SDS011;9804;52.350;6.684;2022-11-06T11:14:23;4.82;;;1.52;;
19339;SDS011;9804;52.350;6.684;2022-11-06T11:16:50;4.93;;;1.48;;
19339;SDS011;9804;52.350;6.684;2022-11-06T11:22:01;8.93;;;1.65;;
19339;SDS011;9804;52.350;6.684;2022-11-06T11:24:28;4.57;;;1.50;;
19339;SDS011;9804;52.350;6.684;2022-11-06T11:26:55;5.43;;;1.63;;
19339;SDS011;9804;52.350;6.684;2022-11-06T11:32:00;4.20;;;1.27;;
19339;SDS011;9804;52.350;6.684;2022-11-06T11:34:30;4.15;;;1.23;;
19339;SDS011;9804;52.350;6.684;2022-11-06T11:37:02;6.13;;;1.52;;
19339;SDS011;9804;52.350;6.684;2022-11-06T11:39:36;6.13;;;1.27;;
19339;SDS011;9804;52.350;6.684;2022-11-06T11:42:25;4.40;;;1.08;;
19339;SDS011;9804;52.350;6.684;2022-11-06T11:47:33;4.07;;;1.25;;
19339;SDS011;9804;52.350;6.684;2022-11-06T11:50:16;5.65;;;1.25;;
19339;SDS011;9804;52.350;6.684;2022-11-06T11:52:44;6.05;;;1.27;;
19339;SDS011;9804;52.350;6.684;2022-11-06T11:55:18;6.22;;;1.40;;
19339;SDS011;9804;52.350;6.684;2022-11-06T11:57:46;3.88;;;1.40;;
19339;SDS011;9804;52.350;6.684;2022-11-06T12:00:15;5.75;;;1.35;;
19339;SDS011;9804;52.350;6.684;2022-11-06T12:02:43;9.13;;;1.33;;
19339;SDS011;9804;52.350;6.684;2022-11-06T12:05:13;7.57;;;1.75;;
19339;SDS011;9804;52.350;6.684;2022-11-06T12:08:11;5.65;;;1.45;;
19339;SDS011;9804;52.350;6.684;2022-11-06T12:10:45;8.52;;;1.38;;
19339;SDS011;9804;52.350;6.684;2022-11-06T12:13:15;6.65;;;1.50;;
19339;SDS011;9804;52.350;6.684;2022-11-06T12:15:45;5.97;;;1.60;;
19339;SDS011;9804;52.350;6.684;2022-11-06T12:18:40;4.93;;;1.30;;
19339;SDS011;9804;52.350;6.684;2022-11-06T12:21:31;4.82;;;1.20;;
19339;SDS011;9804;52.350;6.684;2022-11-06T12:29:20;4.95;;;1.48;;
19339;SDS011;9804;52.350;6.684;2022-11-06T12:31:51;3.20;;;1.10;;
19339;SDS011;9804;52.350;6.684;2022-11-06T12:34:32;5.10;;;1.17;;
19339;SDS011;9804;52.350;6.684;2022-11-06T12:37:03;7.35;;;1.20;;
19339;SDS011;9804;52.350;6.684;2022-11-06T12:39:32;4.82;;;1.20;;
19339;SDS011;9804;52.350;6.684;2022-11-06T12:42:01;4.20;;;1.10;;
19339;SDS011;9804;52.350;6.684;2022-11-06T12:44:28;3.60;;;1.33;;
19339;SDS011;9804;52.350;6.684;2022-11-06T12:47:05;7.85;;;1.02;;
19339;SDS011;9804;52.350;6.684;2022-11-06T12:55:22;7.55;;;1.20;;
19339;SDS011;9804;52.350;6.684;2022-11-06T13:00:45;3.80;;;1.25;;
19339;SDS011;9804;52.350;6.684;2022-11-06T13:03:41;5.18;;;1.50;;
19339;SDS011;9804;52.350;6.684;2022-11-06T13:09:20;3.97;;;1.58;;
19339;SDS011;9804;52.350;6.684;2022-11-06T13:12:00;3.35;;;1.60;;
19339;SDS011;9804;52.350;6.684;2022-11-06T13:14:38;11.95;;;2.13;;
19339;SDS011;9804;52.350;6.684;2022-11-06T13:17:23;5.38;;;1.92;;
19339;SDS011;9804;52.350;6.684;2022-11-06T13:19:56;7.00;;;2.33;;
19339;SDS011;9804;52.350;6.684;2022-11-06T13:22:37;6.93;;;2.15;;
19339;SDS011;9804;52.350;6.684;2022-11-06T13:25:21;9.13;;;1.92;;
19339;SDS011;9804;52.350;6.684;2022-11-06T13:27:59;5.72;;;1.70;;
19339;SDS011;9804;52.350;6.684;2022-11-06T13:30:32;6.88;;;1.70;;
19339;SDS011;9804;52.350;6.684;2022-11-06T13:35:44;7.78;;;1.88;;
19339;SDS011;9804;52.350;6.684;2022-11-06T13:38:19;7.20;;;1.77;;
19339;SDS011;9804;52.350;6.684;2022-11-06T13:40:47;8.52;;;2.05;;
19339;SDS011;9804;52.350;6.684;2022-11-06T13:43:18;6.75;;;2.22;;
19339;SDS011;9804;52.350;6.684;2022-11-06T13:51:18;4.47;;;1.77;;
19339;SDS011;9804;52.350;6.684;2022-11-06T13:59:45;10.35;;;1.95;;
19339;SDS011;9804;52.350;6.684;2022-11-06T14:02:44;4.93;;;1.65;;
19339;SDS011;9804;52.350;6.684;2022-11-06T14:05:41;6.78;;;1.70;;
19339;SDS011;9804;52.350;6.684;2022-11-06T14:10:47;9.13;;;1.88;;
19339;SDS011;9804;52.350;6.684;2022-11-06T14:13:17;8.85;;;1.90;;
19339;SDS011;9804;52.350;6.684;2022-11-06T14:15:48;6.93;;;1.55;;
19339;SDS011;9804;52.350;6.684;2022-11-06T14:18:19;6.60;;;1.80;;
19339;SDS011;9804;52.350;6.684;2022-11-06T14:20:46;4.57;;;1.70;;
19339;SDS011;9804;52.350;6.684;2022-11-06T14:25:58;8.30;;;1.75;;
19339;SDS011;9804;52.350;6.684;2022-11-06T14:28:34;4.35;;;2.00;;
19339;SDS011;9804;52.350;6.684;2022-11-06T14:31:08;8.27;;;1.90;;
19339;SDS011;9804;52.350;6.684;2022-11-06T14:36:12;6.78;;;2.13;;
19339;SDS011;9804;52.350;6.684;2022-11-06T14:38:50;8.77;;;1.80;;
19339;SDS011;9804;52.350;6.684;2022-11-06T14:44:12;5.88;;;1.88;;
19339;SDS011;9804;52.350;6.684;2022-11-06T14:46:48;6.70;;;1.77;;
19339;SDS011;9804;52.350;6.684;2022-11-06T14:49:20;4.15;;;1.60;;
19339;SDS011;9804;52.350;6.684;2022-11-06T14:52:03;8.10;;;1.92;;
19339;SDS011;9804;52.350;6.684;2022-11-06T14:54:31;6.97;;;2.28;;
19339;SDS011;9804;52.350;6.684;2022-11-06T14:57:00;8.00;;;2.45;;
19339;SDS011;9804;52.350;6.684;2022-11-06T14:59:35;6.03;;;2.30;;
19339;SDS011;9804;52.350;6.684;2022-11-06T15:04:42;5.03;;;1.95;;
19339;SDS011;9804;52.350;6.684;2022-11-06T15:13:25;4.30;;;1.85;;
19339;SDS011;9804;52.350;6.684;2022-11-06T15:16:00;6.78;;;1.77;;
19339;SDS011;9804;52.350;6.684;2022-11-06T15:18:28;8.35;;;2.20;;
19339;SDS011;9804;52.350;6.684;2022-11-06T15:20:58;5.60;;;2.95;;
19339;SDS011;9804;52.350;6.684;2022-11-06T15:23:27;5.45;;;2.20;;
19339;SDS011;9804;52.350;6.684;2022-11-06T15:26:04;5.57;;;2.08;;
19339;SDS011;9804;52.350;6.684;2022-11-06T15:28:45;6.05;;;2.50;;
19339;SDS011;9804;52.350;6.684;2022-11-06T15:31:15;6.85;;;2.08;;
19339;SDS011;9804;52.350;6.684;2022-11-06T15:33:50;7.68;;;2.22;;
19339;SDS011;9804;52.350;6.684;2022-11-06T15:36:35;7.28;;;2.38;;
19339;SDS011;9804;52.350;6.684;2022-11-06T15:41:55;6.47;;;2.20;;
19339;SDS011;9804;52.350;6.684;2022-11-06T15:44:21;8.75;;;2.35;;
19339;SDS011;9804;52.350;6.684;2022-11-06T15:46:55;7.55;;;1.90;;
19339;SDS011;9804;52.350;6.684;2022-11-06T15:49:21;6.78;;;1.80;;
19339;SDS011;9804;52.350;6.684;2022-11-06T15:52:00;6.25;;;2.28;;
19339;SDS011;9804;52.350;6.684;2022-11-06T15:56:55;8.93;;;2.85;;
19339;SDS011;9804;52.350;6.684;2022-11-06T15:59:21;5.50;;;2.15;;
19339;SDS011;9804;52.350;6.684;2022-11-06T16:01:47;4.18;;;1.15;;
19339;SDS011;9804;52.350;6.684;2022-11-06T16:04:20;6.80;;;1.58;;
19339;SDS011;9804;52.350;6.684;2022-11-06T16:06:49;4.93;;;1.80;;
19339;SDS011;9804;52.350;6.684;2022-11-06T16:09:17;3.47;;;1.48;;
19339;SDS011;9804;52.350;6.684;2022-11-06T16:11:46;4.47;;;1.70;;
19339;SDS011;9804;52.350;6.684;2022-11-06T16:14:15;7.80;;;1.45;;
19339;SDS011;9804;52.350;6.684;2022-11-06T16:16:42;4.55;;;1.50;;
19339;SDS011;9804;52.350;6.684;2022-11-06T16:19:19;7.32;;;4.38;;
19339;SDS011;9804;52.350;6.684;2022-11-06T16:21:53;4.78;;;2.13;;
19339;SDS011;9804;52.350;6.684;2022-11-06T16:24:20;4.72;;;1.67;;
19339;SDS011;9804;52.350;6.684;2022-11-06T16:26:47;10.70;;;4.90;;
19339;SDS011;9804;52.350;6.684;2022-11-06T16:29:26;3.90;;;1.42;;
19339;SDS011;9804;52.350;6.684;2022-11-06T16:32:06;5.25;;;1.55;;
19339;SDS011;9804;52.350;6.684;2022-11-06T16:39:46;3.20;;;1.50;;
19339;SDS011;9804;52.350;6.684;2022-11-06T16:42:31;4.72;;;2.03;;
19339;SDS011;9804;52.350;6.684;2022-11-06T16:45:16;5.85;;;2.30;;
19339;SDS011;9804;52.350;6.684;2022-11-06T16:50:46;4.55;;;2.05;;
19339;SDS011;9804;52.350;6.684;2022-11-06T16:53:17;5.80;;;1.80;;
19339;SDS011;9804;52.350;6.684;2022-11-06T16:55:48;5.82;;;1.90;;
19339;SDS011;9804;52.350;6.684;2022-11-06T16:58:18;4.53;;;1.90;;
19339;SDS011;9804;52.350;6.684;2022-11-06T17:00:44;5.97;;;1.90;;
19339;SDS011;9804;52.350;6.684;2022-11-06T17:03:19;4.22;;;1.70;;
19339;SDS011;9804;52.350;6.684;2022-11-06T17:05:53;4.50;;;1.60;;
19339;SDS011;9804;52.350;6.684;2022-11-06T17:08:29;4.18;;;1.77;;
19339;SDS011;9804;52.350;6.684;2022-11-06T17:10:56;8.07;;;2.83;;
19339;SDS011;9804;52.350;6.684;2022-11-06T17:15:57;9.15;;;4.90;;
19339;SDS011;9804;52.350;6.684;2022-11-06T17:18:26;7.20;;;3.50;;
19339;SDS011;9804;52.350;6.684;2022-11-06T17:21:03;7.22;;;2.47;;
19339;SDS011;9804;52.350;6.684;2022-11-06T17:23:36;5.70;;;2.38;;
19339;SDS011;9804;52.350;6.684;2022-11-06T17:26:02;5.28;;;2.25;;
19339;SDS011;9804;52.350;6.684;2022-11-06T17:28:30;7.60;;;1.80;;
19339;SDS011;9804;52.350;6.684;2022-11-06T17:30:55;5.55;;;2.35;;
19339;SDS011;9804;52.350;6.684;2022-11-06T17:33:21;5.18;;;2.22;;
19339;SDS011;9804;52.350;6.684;2022-11-06T17:35:48;5.93;;;2.30;;
19339;SDS011;9804;52.350;6.684;2022-11-06T17:38:14;4.78;;;2.30;;